sensor_id;sensor_type;location;lat;lon;timestamp;P1;durP1;ratioP1;P2;durP2;ratioP2
43706;SDS011;61348;53.392;-6.248;2023-01-05T00:01:32;24.98;;;4.03;;
43706;SDS011;61348;53.392;-6.248;2023-01-05T00:03:58;19.25;;;3.67;;
43706;SDS011;61348;53.392;-6.248;2023-01-05T00:06:25;21.42;;;5.13;;
43706;SDS011;61348;53.392;-6.248;2023-01-05T00:08:52;16.92;;;3.08;;
43706;SDS011;61348;53.392;-6.248;2023-01-05T00:11:21;22.27;;;3.80;;
43706;SDS011;61348;53.392;-6.248;2023-01-05T00:14:21;13.63;;;3.05;;
43706;SDS011;61348;53.392;-6.248;2023-01-05T00:17:12;22.33;;;3.00;;
43706;SDS011;61348;53.392;-6.248;2023-01-05T00:20:00;38.78;;;5.80;;
43706;SDS011;61348;53.392;-6.248;2023-01-05T00:25:17;17.20;;;3.33;;
43706;SDS011;61348;53.392;-6.248;2023-01-05T00:27:49;38.05;;;6.97;;
43706;SDS011;61348;53.392;-6.248;2023-01-05T00:30:18;20.10;;;3.70;;
43706;SDS011;61348;53.392;-6.248;2023-01-05T00:32:46;11.35;;;3.42;;
43706;SDS011;61348;53.392;-6.248;2023-01-05T00:35:14;15.82;;;3.85;;
43706;SDS011;61348;53.392;-6.248;2023-01-05T00:37:41;13.80;;;2.95;;
43706;SDS011;61348;53.392;-6.248;2023-01-05T00:40:09;14.50;;;3.03;;
43706;SDS011;61348;53.392;-6.248;2023-01-05T00:42:38;15.88;;;3.30;;
43706;SDS011;61348;53.392;-6.248;2023-01-05T00:45:05;13.35;;;3.20;;
43706;SDS011;61348;53.392;-6.248;2023-01-05T00:47:33;14.93;;;4.13;;
43706;SDS011;61348;53.392;-6.248;2023-01-05T00:50:00;18.55;;;2.92;;
43706;SDS011;61348;53.392;-6.248;2023-01-05T00:52:27;11.55;;;2.50;;
43706;SDS011;61348;53.392;-6.248;2023-01-05T00:54:53;10.88;;;2.70;;
43706;SDS011;61348;53.392;-6.248;2023-01-05T00:57:20;23.52;;;3.67;;
43706;SDS011;61348;53.392;-6.248;2023-01-05T00:59:47;12.60;;;3.28;;
43706;SDS011;61348;53.392;-6.248;2023-01-05T01:02:13;13.13;;;2.80;;
43706;SDS011;61348;53.392;-6.248;2023-01-05T01:04:41;12.77;;;2.47;;
43706;SDS011;61348;53.392;-6.248;2023-01-05T01:07:07;5.55;;;1.50;;
43706;SDS011;61348;53.392;-6.248;2023-01-05T01:09:34;16.95;;;3.38;;
43706;SDS011;61348;53.392;-6.248;2023-01-05T01:12:02;7.95;;;2.45;;
43706;SDS011;61348;53.392;-6.248;2023-01-05T01:14:29;13.43;;;2.80;;
43706;SDS011;61348;53.392;-6.248;2023-01-05T01:16:56;9.00;;;2.65;;
43706;SDS011;61348;53.392;-6.248;2023-01-05T01:19:23;10.82;;;3.45;;
43706;SDS011;61348;53.392;-6.248;2023-01-05T01:21:51;8.98;;;1.40;;
43706;SDS011;61348;53.392;-6.248;2023-01-05T01:24:19;8.75;;;1.52;;
43706;SDS011;61348;53.392;-6.248;2023-01-05T01:26:52;6.05;;;1.58;;
43706;SDS011;61348;53.392;-6.248;2023-01-05T01:29:20;8.07;;;1.08;;
43706;SDS011;61348;53.392;-6.248;2023-01-05T01:31:47;3.92;;;1.08;;
43706;SDS011;61348;53.392;-6.248;2023-01-05T01:34:15;3.55;;;1.35;;
43706;SDS011;61348;53.392;-6.248;2023-01-05T01:36:42;6.03;;;1.38;;
43706;SDS011;61348;53.392;-6.248;2023-01-05T01:39:10;5.82;;;1.15;;
43706;SDS011;61348;53.392;-6.248;2023-01-05T01:41:37;14.95;;;4.18;;
43706;SDS011;61348;53.392;-6.248;2023-01-05T01:47:09;12.40;;;1.92;;
43706;SDS011;61348;53.392;-6.248;2023-01-05T01:49:42;12.32;;;2.28;;
43706;SDS011;61348;53.392;-6.248;2023-01-05T01:52:09;19.90;;;3.10;;
43706;SDS011;61348;53.392;-6.248;2023-01-05T01:54:36;20.52;;;3.42;;
43706;SDS011;61348;53.392;-6.248;2023-01-05T01:57:04;15.30;;;2.70;;
43706;SDS011;61348;53.392;-6.248;2023-01-05T01:59:31;23.65;;;5.70;;
43706;SDS011;61348;53.392;-6.248;2023-01-05T02:01:58;13.13;;;2.20;;
43706;SDS011;61348;53.392;-6.248;2023-01-05T02:04:28;13.57;;;2.72;;
43706;SDS011;61348;53.392;-6.248;2023-01-05T02:06:57;15.52;;;2.38;;
43706;SDS011;61348;53.392;-6.248;2023-01-05T02:09:24;11.00;;;3.30;;
43706;SDS011;61348;53.392;-6.248;2023-01-05T02:25:36;20.98;;;3.65;;
43706;SDS011;61348;53.392;-6.248;2023-01-05T02:31:06;16.35;;;3.97;;
43706;SDS011;61348;53.392;-6.248;2023-01-05T02:33:59;19.60;;;3.65;;
43706;SDS011;61348;53.392;-6.248;2023-01-05T02:37:03;21.88;;;3.50;;
43706;SDS011;61348;53.392;-6.248;2023-01-05T02:42:03;20.10;;;3.40;;
43706;SDS011;61348;53.392;-6.248;2023-01-05T02:44:35;20.05;;;3.20;;
43706;SDS011;61348;53.392;-6.248;2023-01-05T02:49:32;12.32;;;2.55;;
43706;SDS011;61348;53.392;-6.248;2023-01-05T02:54:34;13.25;;;3.22;;
43706;SDS011;61348;53.392;-6.248;2023-01-05T02:57:10;13.25;;;3.05;;
43706;SDS011;61348;53.392;-6.248;2023-01-05T02:59:49;22.65;;;3.85;;
43706;SDS011;61348;53.392;-6.248;2023-01-05T03:02:19;31.20;;;4.45;;
43706;SDS011;61348;53.392;-6.248;2023-01-05T03:05:12;9.35;;;2.33;;
43706;SDS011;61348;53.392;-6.248;2023-01-05T03:07:44;18.73;;;3.83;;
43706;SDS011;61348;53.392;-6.248;2023-01-05T03:10:13;19.35;;;3.00;;
43706;SDS011;61348;53.392;-6.248;2023-01-05T03:12:59;18.63;;;3.15;;
43706;SDS011;61348;53.392;-6.248;2023-01-05T03:15:49;17.13;;;3.30;;
43706;SDS011;61348;53.392;-6.248;2023-01-05T03:18:24;16.42;;;2.78;;
43706;SDS011;61348;53.392;-6.248;2023-01-05T03:20:52;19.33;;;4.88;;
43706;SDS011;61348;53.392;-6.248;2023-01-05T03:23:20;12.05;;;2.75;;
43706;SDS011;61348;53.392;-6.248;2023-01-05T03:26:07;23.20;;;3.50;;
43706;SDS011;61348;53.392;-6.248;2023-01-05T03:28:56;23.77;;;3.40;;
43706;SDS011;61348;53.392;-6.248;2023-01-05T03:31:55;22.60;;;4.13;;
43706;SDS011;61348;53.392;-6.248;2023-01-05T03:37:49;23.23;;;4.17;;
43706;SDS011;61348;53.392;-6.248;2023-01-05T03:40:21;20.23;;;3.50;;
43706;SDS011;61348;53.392;-6.248;2023-01-05T03:42:53;26.70;;;3.35;;
43706;SDS011;61348;53.392;-6.248;2023-01-05T03:45:20;15.35;;;3.20;;
43706;SDS011;61348;53.392;-6.248;2023-01-05T03:47:48;29.10;;;7.00;;
43706;SDS011;61348;53.392;-6.248;2023-01-05T03:50:15;20.40;;;3.40;;
43706;SDS011;61348;53.392;-6.248;2023-01-05T03:52:42;23.58;;;3.92;;
43706;SDS011;61348;53.392;-6.248;2023-01-05T03:55:08;23.58;;;3.40;;
43706;SDS011;61348;53.392;-6.248;2023-01-05T03:57:35;20.35;;;4.40;;
43706;SDS011;61348;53.392;-6.248;2023-01-05T04:00:02;26.77;;;3.78;;
43706;SDS011;61348;53.392;-6.248;2023-01-05T04:02:30;27.85;;;4.05;;
43706;SDS011;61348;53.392;-6.248;2023-01-05T04:04:58;24.13;;;5.75;;
43706;SDS011;61348;53.392;-6.248;2023-01-05T04:07:24;20.60;;;4.03;;
43706;SDS011;61348;53.392;-6.248;2023-01-05T04:09:52;20.65;;;3.80;;
43706;SDS011;61348;53.392;-6.248;2023-01-05T04:12:19;22.95;;;4.18;;
43706;SDS011;61348;53.392;-6.248;2023-01-05T04:14:45;17.58;;;4.10;;
43706;SDS011;61348;53.392;-6.248;2023-01-05T04:17:12;20.95;;;4.38;;
43706;SDS011;61348;53.392;-6.248;2023-01-05T04:19:38;33.88;;;5.32;;
43706;SDS011;61348;53.392;-6.248;2023-01-05T04:22:05;27.25;;;4.78;;
43706;SDS011;61348;53.392;-6.248;2023-01-05T04:24:32;35.20;;;6.32;;
43706;SDS011;61348;53.392;-6.248;2023-01-05T04:26:58;24.05;;;5.68;;
43706;SDS011;61348;53.392;-6.248;2023-01-05T04:29:27;26.38;;;5.15;;
43706;SDS011;61348;53.392;-6.248;2023-01-05T04:31:54;22.80;;;4.45;;
43706;SDS011;61348;53.392;-6.248;2023-01-05T04:34:20;33.80;;;5.90;;
43706;SDS011;61348;53.392;-6.248;2023-01-05T04:36:47;20.02;;;4.32;;
43706;SDS011;61348;53.392;-6.248;2023-01-05T04:39:14;38.72;;;5.47;;
43706;SDS011;61348;53.392;-6.248;2023-01-05T04:41:41;25.77;;;4.93;;
43706;SDS011;61348;53.392;-6.248;2023-01-05T04:44:08;27.85;;;4.38;;
43706;SDS011;61348;53.392;-6.248;2023-01-05T04:46:35;21.15;;;4.13;;
43706;SDS011;61348;53.392;-6.248;2023-01-05T04:49:01;23.73;;;4.00;;
43706;SDS011;61348;53.392;-6.248;2023-01-05T04:51:28;16.65;;;3.72;;
43706;SDS011;61348;53.392;-6.248;2023-01-05T04:53:55;22.50;;;5.57;;
43706;SDS011;61348;53.392;-6.248;2023-01-05T04:56:21;18.73;;;3.95;;
43706;SDS011;61348;53.392;-6.248;2023-01-05T04:58:48;17.88;;;3.75;;
43706;SDS011;61348;53.392;-6.248;2023-01-05T05:01:15;18.50;;;3.78;;
43706;SDS011;61348;53.392;-6.248;2023-01-05T05:03:42;19.02;;;4.28;;
43706;SDS011;61348;53.392;-6.248;2023-01-05T05:06:08;20.02;;;3.13;;
43706;SDS011;61348;53.392;-6.248;2023-01-05T05:08:37;14.98;;;3.38;;
43706;SDS011;61348;53.392;-6.248;2023-01-05T05:11:05;14.90;;;3.08;;
43706;SDS011;61348;53.392;-6.248;2023-01-05T05:13:32;13.85;;;2.83;;
43706;SDS011;61348;53.392;-6.248;2023-01-05T05:15:58;10.23;;;2.40;;
43706;SDS011;61348;53.392;-6.248;2023-01-05T05:18:25;11.35;;;2.60;;
43706;SDS011;61348;53.392;-6.248;2023-01-05T05:20:52;11.80;;;2.88;;
43706;SDS011;61348;53.392;-6.248;2023-01-05T05:23:19;9.98;;;2.25;;
43706;SDS011;61348;53.392;-6.248;2023-01-05T05:25:48;19.05;;;3.33;;
43706;SDS011;61348;53.392;-6.248;2023-01-05T05:28:15;12.18;;;2.10;;
43706;SDS011;61348;53.392;-6.248;2023-01-05T05:30:42;7.90;;;2.15;;
43706;SDS011;61348;53.392;-6.248;2023-01-05T05:33:09;18.52;;;2.38;;
43706;SDS011;61348;53.392;-6.248;2023-01-05T05:35:37;12.13;;;3.00;;
43706;SDS011;61348;53.392;-6.248;2023-01-05T05:38:04;15.60;;;3.25;;
43706;SDS011;61348;53.392;-6.248;2023-01-05T05:40:31;12.95;;;2.90;;
43706;SDS011;61348;53.392;-6.248;2023-01-05T05:42:57;19.92;;;2.58;;
43706;SDS011;61348;53.392;-6.248;2023-01-05T05:45:24;18.55;;;3.40;;
43706;SDS011;61348;53.392;-6.248;2023-01-05T05:47:52;10.35;;;2.50;;
43706;SDS011;61348;53.392;-6.248;2023-01-05T05:50:19;11.52;;;2.10;;
43706;SDS011;61348;53.392;-6.248;2023-01-05T05:52:45;21.80;;;4.75;;
43706;SDS011;61348;53.392;-6.248;2023-01-05T05:55:12;16.02;;;2.45;;
43706;SDS011;61348;53.392;-6.248;2023-01-05T05:57:39;14.57;;;3.35;;
43706;SDS011;61348;53.392;-6.248;2023-01-05T06:00:05;10.35;;;2.72;;
43706;SDS011;61348;53.392;-6.248;2023-01-05T06:02:32;13.32;;;2.90;;
43706;SDS011;61348;53.392;-6.248;2023-01-05T06:04:59;20.90;;;3.35;;
43706;SDS011;61348;53.392;-6.248;2023-01-05T06:07:26;14.88;;;4.28;;
43706;SDS011;61348;53.392;-6.248;2023-01-05T06:09:52;22.02;;;4.20;;
43706;SDS011;61348;53.392;-6.248;2023-01-05T06:12:19;8.43;;;2.33;;
43706;SDS011;61348;53.392;-6.248;2023-01-05T06:14:46;16.52;;;2.70;;
43706;SDS011;61348;53.392;-6.248;2023-01-05T06:17:13;12.65;;;2.63;;
43706;SDS011;61348;53.392;-6.248;2023-01-05T06:19:39;14.65;;;2.83;;
43706;SDS011;61348;53.392;-6.248;2023-01-05T06:22:06;20.75;;;3.33;;
43706;SDS011;61348;53.392;-6.248;2023-01-05T06:24:33;19.88;;;4.82;;
43706;SDS011;61348;53.392;-6.248;2023-01-05T06:26:59;15.45;;;2.58;;
43706;SDS011;61348;53.392;-6.248;2023-01-05T06:29:26;8.50;;;2.13;;
43706;SDS011;61348;53.392;-6.248;2023-01-05T06:31:52;21.13;;;4.55;;
43706;SDS011;61348;53.392;-6.248;2023-01-05T06:34:19;11.48;;;2.70;;
43706;SDS011;61348;53.392;-6.248;2023-01-05T06:36:47;14.18;;;2.80;;
43706;SDS011;61348;53.392;-6.248;2023-01-05T06:39:14;17.30;;;2.42;;
43706;SDS011;61348;53.392;-6.248;2023-01-05T06:41:41;11.45;;;3.72;;
43706;SDS011;61348;53.392;-6.248;2023-01-05T06:44:07;8.35;;;2.03;;
43706;SDS011;61348;53.392;-6.248;2023-01-05T06:46:34;10.05;;;2.03;;
43706;SDS011;61348;53.392;-6.248;2023-01-05T06:49:01;9.82;;;1.80;;
43706;SDS011;61348;53.392;-6.248;2023-01-05T06:51:28;7.70;;;1.52;;
43706;SDS011;61348;53.392;-6.248;2023-01-05T06:53:54;4.45;;;1.42;;
43706;SDS011;61348;53.392;-6.248;2023-01-05T06:56:21;9.32;;;1.85;;
43706;SDS011;61348;53.392;-6.248;2023-01-05T06:58:48;4.80;;;1.23;;
43706;SDS011;61348;53.392;-6.248;2023-01-05T07:01:14;5.47;;;1.55;;
43706;SDS011;61348;53.392;-6.248;2023-01-05T07:03:41;3.03;;;1.00;;
43706;SDS011;61348;53.392;-6.248;2023-01-05T07:06:08;4.10;;;1.10;;
43706;SDS011;61348;53.392;-6.248;2023-01-05T07:08:40;6.00;;;1.65;;
43706;SDS011;61348;53.392;-6.248;2023-01-05T07:11:07;6.50;;;1.08;;
43706;SDS011;61348;53.392;-6.248;2023-01-05T07:13:34;3.85;;;1.20;;
43706;SDS011;61348;53.392;-6.248;2023-01-05T07:16:00;8.43;;;1.40;;
43706;SDS011;61348;53.392;-6.248;2023-01-05T07:18:27;6.40;;;1.40;;
43706;SDS011;61348;53.392;-6.248;2023-01-05T07:20:54;6.53;;;1.23;;
43706;SDS011;61348;53.392;-6.248;2023-01-05T07:23:20;4.93;;;1.00;;
43706;SDS011;61348;53.392;-6.248;2023-01-05T07:25:47;4.18;;;1.05;;
43706;SDS011;61348;53.392;-6.248;2023-01-05T07:28:14;8.65;;;1.70;;
43706;SDS011;61348;53.392;-6.248;2023-01-05T07:30:40;13.45;;;1.42;;
43706;SDS011;61348;53.392;-6.248;2023-01-05T07:33:07;8.55;;;1.35;;
43706;SDS011;61348;53.392;-6.248;2023-01-05T07:35:34;5.90;;;1.27;;
43706;SDS011;61348;53.392;-6.248;2023-01-05T07:38:01;6.45;;;1.10;;
43706;SDS011;61348;53.392;-6.248;2023-01-05T07:40:28;6.40;;;1.50;;
43706;SDS011;61348;53.392;-6.248;2023-01-05T07:42:55;8.27;;;1.40;;
43706;SDS011;61348;53.392;-6.248;2023-01-05T07:45:21;5.80;;;2.15;;
43706;SDS011;61348;53.392;-6.248;2023-01-05T07:47:48;5.78;;;1.38;;
43706;SDS011;61348;53.392;-6.248;2023-01-05T07:50:15;6.30;;;1.52;;
43706;SDS011;61348;53.392;-6.248;2023-01-05T07:52:42;6.55;;;1.80;;
43706;SDS011;61348;53.392;-6.248;2023-01-05T07:55:08;5.63;;;1.38;;
43706;SDS011;61348;53.392;-6.248;2023-01-05T07:57:35;6.63;;;1.33;;
43706;SDS011;61348;53.392;-6.248;2023-01-05T08:00:02;6.13;;;1.30;;
43706;SDS011;61348;53.392;-6.248;2023-01-05T08:02:30;6.72;;;2.10;;
43706;SDS011;61348;53.392;-6.248;2023-01-05T08:05:01;6.93;;;1.85;;
43706;SDS011;61348;53.392;-6.248;2023-01-05T08:07:28;7.55;;;1.60;;
43706;SDS011;61348;53.392;-6.248;2023-01-05T08:09:56;10.32;;;2.08;;
43706;SDS011;61348;53.392;-6.248;2023-01-05T08:12:41;13.18;;;1.90;;
43706;SDS011;61348;53.392;-6.248;2023-01-05T08:15:26;6.97;;;1.50;;
43706;SDS011;61348;53.392;-6.248;2023-01-05T08:17:53;11.80;;;4.28;;
43706;SDS011;61348;53.392;-6.248;2023-01-05T08:20:19;8.13;;;1.65;;
43706;SDS011;61348;53.392;-6.248;2023-01-05T08:22:49;12.88;;;1.73;;
43706;SDS011;61348;53.392;-6.248;2023-01-05T08:25:17;11.88;;;1.85;;
43706;SDS011;61348;53.392;-6.248;2023-01-05T08:27:44;18.35;;;6.05;;
43706;SDS011;61348;53.392;-6.248;2023-01-05T08:30:12;11.32;;;2.70;;
43706;SDS011;61348;53.392;-6.248;2023-01-05T08:32:40;15.35;;;2.83;;
43706;SDS011;61348;53.392;-6.248;2023-01-05T08:38:33;10.77;;;3.78;;
43706;SDS011;61348;53.392;-6.248;2023-01-05T08:41:00;16.50;;;2.45;;
43706;SDS011;61348;53.392;-6.248;2023-01-05T08:43:26;10.45;;;1.98;;
43706;SDS011;61348;53.392;-6.248;2023-01-05T08:45:53;8.98;;;2.13;;
43706;SDS011;61348;53.392;-6.248;2023-01-05T08:48:20;8.52;;;2.17;;
43706;SDS011;61348;53.392;-6.248;2023-01-05T08:50:47;10.50;;;2.67;;
43706;SDS011;61348;53.392;-6.248;2023-01-05T08:53:13;9.50;;;2.00;;
43706;SDS011;61348;53.392;-6.248;2023-01-05T08:55:40;17.80;;;3.63;;
43706;SDS011;61348;53.392;-6.248;2023-01-05T08:58:07;13.90;;;3.15;;
43706;SDS011;61348;53.392;-6.248;2023-01-05T09:00:33;10.82;;;2.35;;
43706;SDS011;61348;53.392;-6.248;2023-01-05T09:03:01;13.73;;;2.90;;
43706;SDS011;61348;53.392;-6.248;2023-01-05T09:05:28;16.70;;;3.78;;
43706;SDS011;61348;53.392;-6.248;2023-01-05T09:07:54;12.23;;;3.00;;
43706;SDS011;61348;53.392;-6.248;2023-01-05T09:10:21;12.07;;;2.85;;
43706;SDS011;61348;53.392;-6.248;2023-01-05T09:12:48;13.73;;;2.03;;
43706;SDS011;61348;53.392;-6.248;2023-01-05T09:15:15;7.63;;;2.33;;
43706;SDS011;61348;53.392;-6.248;2023-01-05T09:17:41;9.68;;;1.70;;
43706;SDS011;61348;53.392;-6.248;2023-01-05T09:20:08;6.05;;;1.50;;
43706;SDS011;61348;53.392;-6.248;2023-01-05T09:22:35;9.02;;;2.00;;
43706;SDS011;61348;53.392;-6.248;2023-01-05T09:25:02;7.75;;;1.55;;
43706;SDS011;61348;53.392;-6.248;2023-01-05T09:27:30;15.27;;;3.42;;
43706;SDS011;61348;53.392;-6.248;2023-01-05T09:29:57;11.27;;;2.10;;
43706;SDS011;61348;53.392;-6.248;2023-01-05T09:32:23;10.57;;;2.70;;
43706;SDS011;61348;53.392;-6.248;2023-01-05T09:34:50;9.57;;;2.22;;
43706;SDS011;61348;53.392;-6.248;2023-01-05T09:37:17;9.02;;;1.98;;
43706;SDS011;61348;53.392;-6.248;2023-01-05T09:39:43;16.65;;;3.28;;
43706;SDS011;61348;53.392;-6.248;2023-01-05T09:42:14;8.73;;;2.00;;
43706;SDS011;61348;53.392;-6.248;2023-01-05T09:44:46;11.13;;;2.05;;
43706;SDS011;61348;53.392;-6.248;2023-01-05T09:47:36;15.93;;;1.88;;
43706;SDS011;61348;53.392;-6.248;2023-01-05T09:50:07;9.73;;;1.92;;
43706;SDS011;61348;53.392;-6.248;2023-01-05T09:52:43;7.55;;;1.50;;
43706;SDS011;61348;53.392;-6.248;2023-01-05T09:55:16;7.00;;;1.58;;
43706;SDS011;61348;53.392;-6.248;2023-01-05T09:57:47;9.75;;;2.05;;
43706;SDS011;61348;53.392;-6.248;2023-01-05T10:00:19;6.68;;;2.17;;
43706;SDS011;61348;53.392;-6.248;2023-01-05T10:02:50;11.40;;;1.85;;
43706;SDS011;61348;53.392;-6.248;2023-01-05T10:05:20;9.95;;;2.38;;
43706;SDS011;61348;53.392;-6.248;2023-01-05T10:11:01;12.55;;;2.15;;
43706;SDS011;61348;53.392;-6.248;2023-01-05T10:14:32;7.13;;;1.92;;
43706;SDS011;61348;53.392;-6.248;2023-01-05T10:16:42;9.27;;;2.13;;
43706;SDS011;61348;53.392;-6.248;2023-01-05T10:19:14;10.93;;;1.77;;
43706;SDS011;61348;53.392;-6.248;2023-01-05T10:21:49;5.72;;;1.10;;
43706;SDS011;61348;53.392;-6.248;2023-01-05T10:24:34;7.38;;;2.40;;
43706;SDS011;61348;53.392;-6.248;2023-01-05T10:30:14;5.25;;;1.00;;
43706;SDS011;61348;53.392;-6.248;2023-01-05T10:46:46;4.38;;;1.27;;
43706;SDS011;61348;53.392;-6.248;2023-01-05T10:49:18;6.15;;;1.20;;
43706;SDS011;61348;53.392;-6.248;2023-01-05T10:51:51;7.40;;;1.70;;
43706;SDS011;61348;53.392;-6.248;2023-01-05T10:54:32;9.60;;;1.65;;
43706;SDS011;61348;53.392;-6.248;2023-01-05T11:00:02;10.73;;;2.17;;
43706;SDS011;61348;53.392;-6.248;2023-01-05T11:02:39;7.40;;;1.20;;
43706;SDS011;61348;53.392;-6.248;2023-01-05T11:07:54;6.47;;;1.13;;
43706;SDS011;61348;53.392;-6.248;2023-01-05T11:10:28;8.65;;;1.55;;
43706;SDS011;61348;53.392;-6.248;2023-01-05T11:12:59;2.90;;;1.23;;
43706;SDS011;61348;53.392;-6.248;2023-01-05T11:16:07;4.35;;;1.33;;
43706;SDS011;61348;53.392;-6.248;2023-01-05T11:23:46;3.55;;;0.90;;
43706;SDS011;61348;53.392;-6.248;2023-01-05T11:31:49;6.43;;;2.17;;
43706;SDS011;61348;53.392;-6.248;2023-01-05T11:39:53;9.13;;;1.10;;
43706;SDS011;61348;53.392;-6.248;2023-01-05T11:50:17;7.13;;;0.90;;
43706;SDS011;61348;53.392;-6.248;2023-01-05T11:52:53;10.77;;;1.20;;
43706;SDS011;61348;53.392;-6.248;2023-01-05T11:55:33;5.60;;;1.02;;
43706;SDS011;61348;53.392;-6.248;2023-01-05T11:58:22;3.70;;;0.68;;
43706;SDS011;61348;53.392;-6.248;2023-01-05T12:14:44;6.78;;;2.05;;
43706;SDS011;61348;53.392;-6.248;2023-01-05T12:17:12;6.38;;;1.08;;
43706;SDS011;61348;53.392;-6.248;2023-01-05T12:19:44;6.00;;;2.13;;
43706;SDS011;61348;53.392;-6.248;2023-01-05T12:22:30;8.48;;;2.15;;
43706;SDS011;61348;53.392;-6.248;2023-01-05T12:28:26;8.23;;;1.67;;
43706;SDS011;61348;53.392;-6.248;2023-01-05T12:35:04;12.05;;;2.20;;
43706;SDS011;61348;53.392;-6.248;2023-01-05T12:40:41;15.40;;;1.38;;
43706;SDS011;61348;53.392;-6.248;2023-01-05T12:46:12;9.75;;;1.98;;
43706;SDS011;61348;53.392;-6.248;2023-01-05T12:48:51;12.85;;;2.55;;
43706;SDS011;61348;53.392;-6.248;2023-01-05T12:51:36;10.82;;;1.90;;
43706;SDS011;61348;53.392;-6.248;2023-01-05T12:54:43;6.95;;;2.05;;
43706;SDS011;61348;53.392;-6.248;2023-01-05T12:57:16;7.40;;;1.75;;
43706;SDS011;61348;53.392;-6.248;2023-01-05T13:02:35;20.73;;;2.40;;
43706;SDS011;61348;53.392;-6.248;2023-01-05T13:05:12;14.23;;;2.15;;
43706;SDS011;61348;53.392;-6.248;2023-01-05T13:10:54;13.40;;;3.05;;
43706;SDS011;61348;53.392;-6.248;2023-01-05T13:13:33;14.15;;;2.95;;
43706;SDS011;61348;53.392;-6.248;2023-01-05T13:16:08;15.20;;;2.55;;
43706;SDS011;61348;53.392;-6.248;2023-01-05T13:18:39;12.23;;;2.33;;
43706;SDS011;61348;53.392;-6.248;2023-01-05T13:21:11;5.43;;;1.90;;
43706;SDS011;61348;53.392;-6.248;2023-01-05T13:23:48;7.90;;;2.35;;
43706;SDS011;61348;53.392;-6.248;2023-01-05T13:26:19;14.07;;;2.20;;
43706;SDS011;61348;53.392;-6.248;2023-01-05T13:28:54;12.13;;;2.38;;
43706;SDS011;61348;53.392;-6.248;2023-01-05T13:34:16;8.73;;;2.60;;
43706;SDS011;61348;53.392;-6.248;2023-01-05T13:42:39;16.20;;;2.05;;
43706;SDS011;61348;53.392;-6.248;2023-01-05T13:45:52;8.35;;;1.63;;
43706;SDS011;61348;53.392;-6.248;2023-01-05T13:53:40;9.45;;;1.48;;
43706;SDS011;61348;53.392;-6.248;2023-01-05T13:56:10;9.13;;;2.42;;
43706;SDS011;61348;53.392;-6.248;2023-01-05T13:58:42;14.65;;;4.10;;
43706;SDS011;61348;53.392;-6.248;2023-01-05T14:01:18;7.88;;;1.55;;
43706;SDS011;61348;53.392;-6.248;2023-01-05T14:03:58;8.52;;;2.17;;
43706;SDS011;61348;53.392;-6.248;2023-01-05T14:06:26;8.20;;;1.08;;
43706;SDS011;61348;53.392;-6.248;2023-01-05T14:09:20;8.13;;;1.30;;
43706;SDS011;61348;53.392;-6.248;2023-01-05T14:28:20;3.55;;;0.85;;
43706;SDS011;61348;53.392;-6.248;2023-01-05T14:31:38;4.68;;;1.10;;
43706;SDS011;61348;53.392;-6.248;2023-01-05T14:34:01;10.48;;;1.65;;
43706;SDS011;61348;53.392;-6.248;2023-01-05T14:36:36;10.18;;;2.03;;
43706;SDS011;61348;53.392;-6.248;2023-01-05T14:39:20;2.67;;;0.70;;
43706;SDS011;61348;53.392;-6.248;2023-01-05T14:44:50;3.80;;;1.60;;
43706;SDS011;61348;53.392;-6.248;2023-01-05T14:47:41;4.63;;;1.58;;
43706;SDS011;61348;53.392;-6.248;2023-01-05T14:53:10;2.65;;;1.35;;
43706;SDS011;61348;53.392;-6.248;2023-01-05T14:59:13;3.60;;;0.93;;
43706;SDS011;61348;53.392;-6.248;2023-01-05T15:01:37;1.23;;;0.57;;
43706;SDS011;61348;53.392;-6.248;2023-01-05T15:04:37;7.82;;;0.73;;
43706;SDS011;61348;53.392;-6.248;2023-01-05T15:10:16;2.90;;;0.90;;
43706;SDS011;61348;53.392;-6.248;2023-01-05T15:21:12;6.25;;;1.15;;
43706;SDS011;61348;53.392;-6.248;2023-01-05T15:39:32;2.25;;;1.33;;
43706;SDS011;61348;53.392;-6.248;2023-01-05T15:42:06;6.65;;;0.90;;
43706;SDS011;61348;53.392;-6.248;2023-01-05T15:44:38;2.53;;;0.80;;
43706;SDS011;61348;53.392;-6.248;2023-01-05T15:47:08;1.60;;;0.82;;
43706;SDS011;61348;53.392;-6.248;2023-01-05T15:49:36;5.75;;;0.93;;
43706;SDS011;61348;53.392;-6.248;2023-01-05T15:52:03;4.03;;;0.82;;
43706;SDS011;61348;53.392;-6.248;2023-01-05T15:54:31;4.70;;;1.33;;
43706;SDS011;61348;53.392;-6.248;2023-01-05T15:56:59;6.40;;;0.90;;
43706;SDS011;61348;53.392;-6.248;2023-01-05T15:59:29;1.45;;;0.90;;
43706;SDS011;61348;53.392;-6.248;2023-01-05T16:01:58;2.63;;;0.75;;
43706;SDS011;61348;53.392;-6.248;2023-01-05T16:04:25;3.35;;;1.30;;
43706;SDS011;61348;53.392;-6.248;2023-01-05T16:06:56;9.05;;;1.27;;
43706;SDS011;61348;53.392;-6.248;2023-01-05T16:09:32;8.52;;;1.50;;
43706;SDS011;61348;53.392;-6.248;2023-01-05T16:12:02;5.05;;;1.10;;
43706;SDS011;61348;53.392;-6.248;2023-01-05T16:14:42;1.40;;;0.82;;
43706;SDS011;61348;53.392;-6.248;2023-01-05T16:17:13;3.45;;;0.88;;
43706;SDS011;61348;53.392;-6.248;2023-01-05T16:28:04;3.20;;;1.17;;
43706;SDS011;61348;53.392;-6.248;2023-01-05T16:30:40;14.35;;;2.70;;
43706;SDS011;61348;53.392;-6.248;2023-01-05T16:35:42;31.05;;;5.60;;
43706;SDS011;61348;53.392;-6.248;2023-01-05T16:38:12;21.23;;;4.03;;
43706;SDS011;61348;53.392;-6.248;2023-01-05T16:48:52;31.92;;;8.52;;
43706;SDS011;61348;53.392;-6.248;2023-01-05T17:04:54;26.08;;;8.35;;
43706;SDS011;61348;53.392;-6.248;2023-01-05T17:07:21;30.73;;;8.75;;
43706;SDS011;61348;53.392;-6.248;2023-01-05T17:09:48;27.80;;;10.07;;
43706;SDS011;61348;53.392;-6.248;2023-01-05T17:12:15;27.63;;;7.38;;
43706;SDS011;61348;53.392;-6.248;2023-01-05T17:14:42;27.20;;;7.30;;
43706;SDS011;61348;53.392;-6.248;2023-01-05T17:17:11;47.28;;;12.95;;
43706;SDS011;61348;53.392;-6.248;2023-01-05T17:19:38;29.23;;;9.15;;
43706;SDS011;61348;53.392;-6.248;2023-01-05T17:22:05;39.15;;;13.23;;
43706;SDS011;61348;53.392;-6.248;2023-01-05T17:24:39;31.63;;;8.85;;
43706;SDS011;61348;53.392;-6.248;2023-01-05T17:27:07;29.73;;;7.50;;
43706;SDS011;61348;53.392;-6.248;2023-01-05T17:29:35;29.58;;;10.85;;
43706;SDS011;61348;53.392;-6.248;2023-01-05T17:32:02;39.03;;;11.95;;
43706;SDS011;61348;53.392;-6.248;2023-01-05T17:34:29;30.02;;;7.70;;
43706;SDS011;61348;53.392;-6.248;2023-01-05T17:36:56;30.80;;;11.10;;
43706;SDS011;61348;53.392;-6.248;2023-01-05T17:39:25;21.15;;;7.22;;
43706;SDS011;61348;53.392;-6.248;2023-01-05T17:41:51;37.08;;;10.20;;
43706;SDS011;61348;53.392;-6.248;2023-01-05T17:44:18;20.65;;;6.43;;
43706;SDS011;61348;53.392;-6.248;2023-01-05T17:46:46;22.23;;;7.22;;
43706;SDS011;61348;53.392;-6.248;2023-01-05T17:49:14;21.02;;;5.72;;
43706;SDS011;61348;53.392;-6.248;2023-01-05T17:51:42;20.85;;;7.82;;
43706;SDS011;61348;53.392;-6.248;2023-01-05T17:54:09;27.42;;;5.18;;
43706;SDS011;61348;53.392;-6.248;2023-01-05T17:56:36;16.65;;;4.85;;
43706;SDS011;61348;53.392;-6.248;2023-01-05T17:59:03;26.55;;;5.60;;
43706;SDS011;61348;53.392;-6.248;2023-01-05T18:01:30;21.10;;;4.38;;
43706;SDS011;61348;53.392;-6.248;2023-01-05T18:03:59;19.90;;;4.78;;
43706;SDS011;61348;53.392;-6.248;2023-01-05T18:06:26;28.00;;;7.05;;
43706;SDS011;61348;53.392;-6.248;2023-01-05T18:08:53;14.65;;;5.72;;
43706;SDS011;61348;53.392;-6.248;2023-01-05T18:11:19;18.73;;;5.95;;
43706;SDS011;61348;53.392;-6.248;2023-01-05T18:13:46;16.10;;;6.18;;
43706;SDS011;61348;53.392;-6.248;2023-01-05T18:16:13;18.42;;;4.60;;
43706;SDS011;61348;53.392;-6.248;2023-01-05T18:18:40;13.35;;;4.53;;
43706;SDS011;61348;53.392;-6.248;2023-01-05T18:21:07;17.20;;;4.78;;
43706;SDS011;61348;53.392;-6.248;2023-01-05T18:23:34;16.65;;;6.13;;
43706;SDS011;61348;53.392;-6.248;2023-01-05T18:26:02;14.30;;;4.47;;